createdAt,value
2017-05-16T00:08:20.978Z,78.21
2017-05-16T00:27:44.353Z,78.73
2017-05-16T00:33:23.740Z,78.80
2017-05-16T00:44:41.589Z,79.17
2017-05-16T00:47:09.477Z,79.21
2017-05-16T00:49:37.974Z,79.27
2017-05-16T00:52:05.690Z,79.38
2017-05-16T00:54:33.519Z,79.47
2017-05-16T00:57:01.335Z,79.51
2017-05-16T00:59:29.060Z,79.55
2017-05-16T01:01:57.464Z,79.50
2017-05-16T01:04:25.392Z,79.51
2017-05-16T01:06:53.663Z,79.62
2017-05-16T01:09:21.308Z,79.63
2017-05-16T01:11:49.008Z,79.70
2017-05-16T01:14:16.572Z,79.82
2017-05-16T01:16:44.089Z,79.86
2017-05-16T01:19:11.959Z,79.91
2017-05-16T01:21:39.856Z,80.02
2017-05-16T01:24:08.231Z,80.09
2017-05-16T01:26:44.124Z,80.07
2017-05-16T01:29:11.952Z,80.13
2017-05-16T01:31:39.890Z,80.20
2017-05-16T01:34:07.853Z,80.16
2017-05-16T01:36:35.877Z,80.22
2017-05-16T01:39:04.291Z,80.20
2017-05-16T01:41:31.961Z,80.21
2017-05-16T01:43:59.995Z,80.26
2017-05-16T01:46:28.510Z,80.28
2017-05-16T01:48:56.884Z,80.45
2017-05-16T01:51:24.661Z,80.45
2017-05-16T01:53:52.843Z,80.53
2017-05-16T01:56:20.387Z,80.52
2017-05-16T01:58:48.225Z,80.51
2017-05-16T02:01:16.700Z,80.61
2017-05-16T02:03:44.404Z,80.78
2017-05-16T02:06:12.583Z,80.84
2017-05-16T02:08:40.565Z,80.82
2017-05-16T02:11:08.496Z,80.89
2017-05-16T02:13:37.517Z,80.92
2017-05-16T02:16:06.857Z,80.90
2017-05-16T02:18:34.592Z,80.91
2017-05-16T02:21:02.603Z,80.97
2017-05-16T02:23:30.451Z,80.97
2017-05-16T02:25:58.141Z,81.00
2017-05-16T02:28:26.229Z,81.09
2017-05-16T02:30:55.913Z,81.17
2017-05-16T02:33:25.294Z,81.21
2017-05-16T02:36:09.799Z,81.26
2017-05-16T03:16:35.621Z,81.68
2017-05-16T03:19:22.664Z,81.69
2017-05-16T03:21:57.731Z,81.77
2017-05-16T04:46:57.631Z,81.78
2017-05-16T04:49:25.949Z,82.01
2017-05-16T04:51:53.619Z,82.10
2017-05-16T04:54:22.811Z,82.15
2017-05-16T04:56:50.707Z,82.33
2017-05-16T04:59:18.712Z,82.07
2017-05-16T05:01:46.789Z,81.98
2017-05-16T05:04:14.899Z,81.84
2017-05-16T05:06:42.471Z,81.97
2017-05-16T05:09:10.208Z,81.79
2017-05-16T05:11:37.933Z,81.87
2017-05-16T05:14:05.447Z,82.07
2017-05-16T05:16:33.207Z,81.82
2017-05-16T05:19:00.775Z,81.77
2017-05-16T05:21:28.427Z,81.83
2017-05-16T05:23:55.999Z,81.73
2017-05-16T05:26:23.623Z,81.68
2017-05-16T05:28:51.397Z,81.84
2017-05-16T05:31:19.116Z,81.75
2017-05-16T05:33:46.975Z,81.68
2017-05-16T05:36:14.458Z,81.64
2017-05-16T05:38:42.032Z,81.52
2017-05-16T05:41:09.839Z,81.31
2017-05-16T05:43:37.456Z,81.14
2017-05-16T05:46:05.155Z,80.83
2017-05-16T05:48:33.463Z,80.25
2017-05-16T05:51:00.934Z,79.85
2017-05-16T05:53:28.710Z,79.89
2017-05-16T05:55:56.167Z,79.85
2017-05-16T05:58:23.979Z,79.78
2017-05-16T06:00:51.558Z,79.66
2017-05-16T06:03:19.545Z,79.47
2017-05-16T06:05:47.035Z,79.21
2017-05-16T06:08:14.500Z,78.91
2017-05-16T06:10:42.074Z,78.75
2017-05-16T06:13:09.654Z,78.46
2017-05-16T06:15:37.294Z,78.33
2017-05-16T06:18:04.878Z,78.18
2017-05-16T06:20:32.587Z,77.93
2017-05-16T06:23:00.086Z,77.63
2017-05-16T06:25:27.902Z,77.29
2017-05-16T06:27:55.824Z,76.97
2017-05-16T06:30:23.406Z,76.87
2017-05-16T06:32:50.958Z,76.51
2017-05-16T06:35:18.738Z,76.19
2017-05-16T06:37:46.314Z,76.18
2017-05-16T06:40:14.125Z,75.77
2017-05-16T06:42:42.457Z,75.40
2017-05-16T06:45:10.051Z,75.24
2017-05-16T06:47:38.690Z,74.69
2017-05-16T06:50:06.178Z,74.54
2017-05-16T06:52:33.617Z,74.23
2017-05-16T06:55:01.265Z,74.09
2017-05-16T06:57:29.149Z,73.92
2017-05-16T06:59:58.411Z,73.82
2017-05-16T07:02:26.039Z,73.65
2017-05-16T07:04:54.034Z,73.66
2017-05-16T07:07:21.974Z,73.34
2017-05-16T07:09:49.497Z,73.08
2017-05-16T07:12:17.151Z,72.62
2017-05-16T07:14:44.707Z,72.26
2017-05-16T07:17:12.311Z,71.77
2017-05-16T07:19:39.783Z,71.87
2017-05-16T07:22:07.398Z,71.33
2017-05-16T07:24:35.051Z,70.75
2017-05-16T07:27:02.654Z,70.18
2017-05-16T07:29:30.121Z,69.64
2017-05-16T07:31:57.743Z,69.52
2017-05-16T07:34:25.202Z,68.90
2017-05-16T07:36:52.774Z,68.56
2017-05-16T07:39:20.246Z,68.27
2017-05-16T07:41:47.706Z,67.76
2017-05-16T07:44:15.157Z,67.74
2017-05-16T07:46:42.648Z,67.32
2017-05-16T07:49:10.111Z,67.15
2017-05-16T07:51:37.571Z,67.08
2017-05-16T07:54:05.030Z,66.58
2017-05-16T07:56:32.472Z,66.32
2017-05-16T07:58:59.972Z,66.06
2017-05-16T08:01:27.399Z,65.75
2017-05-16T08:03:54.834Z,65.83
2017-05-16T08:06:22.277Z,65.29
2017-05-16T08:08:49.724Z,65.03
2017-05-16T08:11:17.214Z,64.50
2017-05-16T08:13:44.694Z,63.84
2017-05-16T08:16:12.215Z,63.11
2017-05-16T08:18:39.663Z,63.19
2017-05-16T08:21:07.169Z,63.29
2017-05-16T08:23:34.708Z,63.29
2017-05-16T08:26:02.185Z,63.18
2017-05-16T08:28:29.641Z,62.88
2017-05-16T08:30:57.217Z,62.36
2017-05-16T08:33:24.819Z,61.65
2017-05-16T08:35:52.288Z,61.41
2017-05-16T08:38:19.728Z,61.66
2017-05-16T08:40:47.201Z,60.24
2017-05-16T08:43:14.653Z,60.43
2017-05-16T08:45:42.118Z,60.25
2017-05-16T08:48:09.577Z,59.15
2017-05-16T08:50:37.051Z,59.42
2017-05-16T08:53:04.595Z,59.74
2017-05-16T08:55:32.042Z,59.36
2017-05-16T08:57:59.501Z,58.91
2017-05-16T09:00:26.940Z,58.79
2017-05-16T09:02:54.430Z,59.48
2017-05-16T09:05:21.868Z,58.96
2017-05-16T09:07:49.316Z,58.80
2017-05-16T09:10:16.758Z,58.70
2017-05-16T09:12:44.183Z,58.01
2017-05-16T09:15:12.617Z,55.95
2017-05-16T09:17:40.041Z,54.66
2017-05-16T09:20:07.466Z,54.29
2017-05-16T09:22:34.902Z,53.50
2017-05-16T09:25:02.337Z,54.81
2017-05-16T09:27:29.791Z,53.45
2017-05-16T09:29:57.210Z,52.68
2017-05-16T09:32:24.662Z,49.16
2017-05-16T09:34:52.090Z,49.48
2017-05-16T09:37:19.539Z,48.89
2017-05-16T09:39:46.986Z,46.57
2017-05-16T09:42:14.429Z,47.74
2017-05-16T09:44:41.866Z,47.03
2017-05-16T09:47:09.289Z,45.60
2017-05-16T09:49:36.713Z,44.91
2017-05-16T09:52:04.150Z,43.51
2017-05-16T09:54:31.579Z,43.83
2017-05-16T09:56:59.035Z,42.21
2017-05-16T09:59:26.457Z,41.94
2017-05-16T10:01:53.879Z,41.40
2017-05-16T10:04:21.335Z,40.13
2017-05-16T10:06:48.767Z,40.66
2017-05-16T10:09:16.221Z,40.11
2017-05-16T10:11:43.647Z,39.90
2017-05-16T10:14:11.079Z,39.78
2017-05-16T10:16:39.216Z,40.29
2017-05-16T10:19:06.637Z,38.66
2017-05-16T10:21:34.086Z,39.31
2017-05-16T10:24:01.510Z,39.33
2017-05-16T10:26:28.949Z,37.86
2017-05-16T10:28:56.666Z,36.76
2017-05-16T10:31:24.159Z,37.19
2017-05-16T10:33:51.649Z,38.29
2017-05-16T10:36:20.750Z,37.58
2017-05-16T10:38:48.210Z,38.27
2017-05-16T10:41:15.668Z,37.56
2017-05-16T10:43:43.234Z,37.90
2017-05-16T10:46:10.803Z,36.26
2017-05-16T10:48:38.273Z,36.97
2017-05-16T10:51:05.842Z,35.46
2017-05-16T10:53:33.271Z,36.29
2017-05-16T10:56:00.721Z,36.97
2017-05-16T10:58:28.138Z,35.75
2017-05-16T11:00:55.590Z,35.12
2017-05-16T11:03:23.010Z,34.64
2017-05-16T11:05:50.431Z,35.33
2017-05-16T11:08:17.873Z,35.30
2017-05-16T11:10:45.386Z,35.63
2017-05-16T11:13:12.877Z,35.36
2017-05-16T11:15:40.315Z,35.49
2017-05-16T11:18:07.762Z,35.37
2017-05-16T11:20:35.188Z,34.70
2017-05-16T11:23:02.611Z,35.37
2017-05-16T11:25:30.050Z,34.96
2017-05-16T11:27:58.182Z,35.40
2017-05-16T11:30:25.647Z,34.10
2017-05-16T11:32:53.082Z,35.41
2017-05-16T11:35:20.539Z,34.75
2017-05-16T11:37:47.962Z,35.11
2017-05-16T11:40:15.398Z,34.55
2017-05-16T11:42:42.834Z,33.93
2017-05-16T11:45:10.262Z,33.26
2017-05-16T11:47:37.719Z,32.97
2017-05-16T11:50:05.149Z,33.01
2017-05-16T11:52:32.585Z,33.31
2017-05-16T11:55:00.028Z,33.72
2017-05-16T11:57:27.463Z,32.71
2017-05-16T11:59:54.907Z,32.83
2017-05-16T12:02:22.342Z,33.11
2017-05-16T12:04:49.780Z,32.66
2017-05-16T12:07:17.208Z,33.03
2017-05-16T12:09:44.659Z,32.38
2017-05-16T12:12:12.085Z,32.97
2017-05-16T12:14:39.518Z,32.04
2017-05-16T12:17:06.954Z,31.97
2017-05-16T12:19:34.386Z,31.74
2017-05-16T12:22:01.826Z,32.28
2017-05-16T12:24:29.254Z,31.91
2017-05-16T12:26:56.710Z,32.28
2017-05-16T12:29:24.142Z,33.30
2017-05-16T12:31:51.567Z,33.07
2017-05-16T12:34:19.024Z,33.00
2017-05-16T12:36:46.447Z,31.58
2017-05-16T12:39:13.898Z,30.60
2017-05-16T12:41:41.325Z,31.75
2017-05-16T12:44:08.779Z,32.37
2017-05-16T12:46:36.208Z,32.56
2017-05-16T12:49:03.644Z,32.31
2017-05-16T12:51:31.090Z,32.41
2017-05-16T12:53:58.514Z,32.24
2017-05-16T12:56:25.961Z,31.57
2017-05-16T12:58:53.388Z,31.92
2017-05-16T13:01:20.830Z,31.51
2017-05-16T13:03:48.255Z,32.05
2017-05-16T13:06:15.683Z,32.21
2017-05-16T13:08:43.130Z,32.86
2017-05-16T13:11:10.560Z,33.53
2017-05-16T13:13:38.001Z,33.13
2017-05-16T13:16:05.430Z,33.02
2017-05-16T13:18:32.883Z,32.97
2017-05-16T13:21:00.310Z,32.58
2017-05-16T13:23:27.731Z,32.33
2017-05-16T13:25:55.263Z,31.64
2017-05-16T13:28:23.706Z,30.67
2017-05-16T13:30:51.140Z,31.60
2017-05-16T13:33:20.563Z,31.84
2017-05-16T13:35:48.009Z,31.66
2017-05-16T13:38:15.437Z,31.16
2017-05-16T13:40:42.900Z,32.07
2017-05-16T13:43:10.330Z,32.68
2017-05-16T13:45:43.321Z,33.09
2017-05-16T13:48:10.926Z,31.67
2017-05-16T13:50:38.371Z,32.96
2017-05-16T13:53:07.840Z,32.81
2017-05-16T13:55:35.269Z,33.61
2017-05-16T13:58:02.702Z,33.26
2017-05-16T14:00:30.138Z,33.69
2017-05-16T14:02:57.569Z,33.78
2017-05-16T14:05:30.315Z,33.64
2017-05-16T14:07:57.834Z,34.33
2017-05-16T14:10:25.258Z,34.37
2017-05-16T14:12:52.794Z,34.46
2017-05-16T14:15:20.289Z,32.74
2017-05-16T14:20:57.615Z,33.36
2017-05-16T14:23:25.179Z,34.27
2017-05-16T14:25:53.659Z,33.94
2017-05-16T14:28:21.250Z,33.42
2017-05-16T14:30:48.788Z,34.28
2017-05-16T14:33:16.454Z,35.00
2017-05-16T14:35:44.362Z,35.72
2017-05-16T14:38:11.813Z,35.31
2017-05-16T14:40:39.646Z,35.59
2017-05-16T14:43:08.138Z,35.75
2017-05-16T14:45:36.636Z,36.39
2017-05-16T14:48:04.463Z,35.56
2017-05-16T14:50:36.491Z,35.79
2017-05-16T14:53:06.035Z,35.15
2017-05-16T14:55:40.204Z,34.96
2017-05-16T14:58:15.274Z,34.00
2017-05-16T15:00:42.983Z,33.82
2017-05-16T15:03:15.515Z,33.52
2017-05-16T15:05:47.655Z,33.68
2017-05-16T15:08:17.776Z,34.30
2017-05-16T15:10:47.094Z,34.70
2017-05-16T15:13:17.055Z,35.32
2017-05-16T15:16:03.192Z,35.46
2017-05-16T15:18:31.123Z,34.33
2017-05-16T15:20:58.760Z,34.67
2017-05-16T15:23:26.515Z,33.04
2017-05-16T15:25:54.743Z,33.93
2017-05-16T15:28:22.207Z,34.69
2017-05-16T15:30:50.577Z,35.14
2017-05-16T15:33:22.267Z,35.22
2017-05-16T15:35:53.990Z,34.89
2017-05-16T15:38:25.098Z,34.23
2017-05-16T15:40:53.366Z,34.02
2017-05-16T15:43:24.018Z,34.09
2017-05-16T15:45:53.883Z,33.63
2017-05-16T15:48:21.479Z,34.27
2017-05-16T15:50:48.998Z,35.39
2017-05-16T15:53:16.567Z,34.72
2017-05-16T15:55:56.721Z,35.30
2017-05-16T15:58:24.562Z,35.75
2017-05-16T16:00:52.440Z,36.73
2017-05-16T16:03:20.025Z,35.84
2017-05-16T18:49:50.437Z,41.63
2017-05-16T18:50:49.819Z,42.09
2017-05-16T18:51:56.779Z,43.21
2017-05-16T18:55:48.204Z,42.43
2017-05-16T18:57:10.759Z,42.11
2017-05-16T19:03:08.060Z,42.40
2017-05-16T19:06:32.373Z,41.72
2017-05-16T19:09:53.206Z,41.71
2017-05-16T19:15:59.301Z,42.31
2017-05-16T19:20:15.658Z,41.96
2017-05-16T19:21:37.264Z,42.00
2017-05-16T19:28:28.671Z,41.20
2017-05-16T19:29:32.823Z,40.97
2017-05-16T19:31:06.349Z,43.18
2017-05-16T19:32:23.559Z,41.30
2017-05-16T19:33:52.235Z,41.84
2017-05-16T19:34:56.695Z,42.15
2017-05-16T19:36:01.179Z,43.81
2017-05-16T19:37:05.634Z,46.76
2017-05-16T19:38:10.065Z,42.92
2017-05-16T19:39:14.574Z,42.92
2017-05-16T19:40:19.022Z,42.85
2017-05-16T19:41:23.519Z,42.91
2017-05-16T19:42:28.048Z,42.90
2017-05-16T19:43:32.511Z,42.84
2017-05-16T19:44:37.007Z,42.88
2017-05-16T19:45:41.446Z,42.63
2017-05-16T19:46:45.923Z,42.85
2017-05-16T19:47:50.400Z,43.12
2017-05-16T19:48:54.910Z,43.80
2017-05-16T19:49:59.435Z,43.91
2017-05-16T19:51:03.942Z,43.95
2017-05-16T19:52:08.431Z,43.34
2017-05-16T19:53:12.931Z,44.26
2017-05-16T19:54:17.421Z,43.35
2017-05-16T19:55:21.989Z,43.19
2017-05-16T19:56:26.453Z,43.29
2017-05-16T19:57:31.004Z,45.56
2017-05-16T19:58:35.442Z,43.86
2017-05-16T19:59:39.962Z,45.64
2017-05-16T20:00:44.459Z,43.88
2017-05-16T20:01:48.966Z,45.43
2017-05-16T20:02:53.405Z,43.72
2017-05-16T20:03:57.963Z,43.37
2017-05-16T20:05:02.455Z,43.55
2017-05-16T20:06:07.061Z,43.57
2017-05-16T20:07:11.503Z,43.96
2017-05-16T20:08:15.991Z,43.78
2017-05-16T20:09:20.467Z,43.74
2017-05-16T20:10:25.068Z,43.76
2017-05-16T20:11:29.529Z,43.81
2017-05-16T20:12:34.008Z,44.18
2017-05-16T20:13:38.426Z,45.78
2017-05-16T20:14:42.894Z,44.32
2017-05-16T20:15:47.313Z,44.68
2017-05-16T20:16:51.817Z,44.07
2017-05-16T20:17:56.259Z,45.22
2017-05-16T20:19:00.715Z,44.63
2017-05-16T20:20:05.194Z,44.41
2017-05-16T20:21:09.634Z,44.39
2017-05-16T20:22:14.449Z,44.74
2017-05-16T20:23:20.016Z,44.99
2017-05-16T20:24:25.517Z,45.74
2017-05-16T20:25:30.047Z,43.90
2017-05-16T20:26:34.524Z,43.73
2017-05-16T20:27:39.018Z,44.95
2017-05-16T20:28:43.517Z,43.76
2017-05-16T20:29:58.520Z,43.14
2017-05-16T20:31:02.983Z,43.11
2017-05-16T20:32:07.593Z,43.47
2017-05-16T20:36:46.211Z,0.00
2017-05-16T20:37:50.669Z,0.00
2017-05-16T20:38:22.504Z,44.13
2017-05-16T20:39:26.993Z,43.93
2017-05-16T20:40:31.900Z,42.92
